createdAt,value
2018-09-06T00:03:17.472Z,9.80
2018-09-06T00:08:20.922Z,12.67
2018-09-06T00:13:24.313Z,10.93
2018-09-06T00:18:27.886Z,11.23
2018-09-06T00:23:31.462Z,9.67
2018-09-06T00:28:34.852Z,10.80
2018-09-06T00:33:38.639Z,9.48
2018-09-06T00:38:42.111Z,11.53
2018-09-06T00:43:45.721Z,9.40
2018-09-06T00:48:49.183Z,10.27
2018-09-06T00:53:52.610Z,11.00
2018-09-06T00:58:56.325Z,10.70
2018-09-06T01:03:59.793Z,9.23
2018-09-06T01:09:03.470Z,9.67
2018-09-06T01:14:07.063Z,9.87
2018-09-06T01:19:10.781Z,10.00
2018-09-06T01:24:14.206Z,10.87
2018-09-06T01:29:17.681Z,10.20
2018-09-06T01:34:21.028Z,9.47
2018-09-06T01:39:24.541Z,10.70
2018-09-06T01:44:27.996Z,9.90
2018-09-06T01:49:31.912Z,10.30
2018-09-06T01:54:35.427Z,10.43
2018-09-06T01:59:40.261Z,10.13
2018-09-06T02:04:43.576Z,10.13
2018-09-06T02:09:47.045Z,9.80
2018-09-06T02:14:50.417Z,8.53
2018-09-06T02:19:53.858Z,9.73
2018-09-06T02:24:57.030Z,9.00
2018-09-06T02:30:00.385Z,9.63
2018-09-06T02:35:03.928Z,9.87
2018-09-06T02:40:07.916Z,9.53
2018-09-06T02:45:11.545Z,9.55
2018-09-06T02:50:20.405Z,9.93
2018-09-06T02:55:24.500Z,10.93
2018-09-06T03:00:31.173Z,8.93
2018-09-06T03:05:34.682Z,10.43
2018-09-06T03:10:41.230Z,9.90
2018-09-06T03:15:44.648Z,10.13
2018-09-06T03:20:48.309Z,9.63
2018-09-06T03:25:51.845Z,9.70
2018-09-06T03:30:55.285Z,10.50
2018-09-06T03:35:58.664Z,10.03
2018-09-06T03:41:02.076Z,9.33
2018-09-06T03:46:07.043Z,10.07
2018-09-06T03:51:10.480Z,9.10
2018-09-06T03:56:14.074Z,10.70
2018-09-06T04:01:17.613Z,10.57
2018-09-06T04:06:21.213Z,9.33
2018-09-06T04:11:24.745Z,8.87
2018-09-06T04:16:28.351Z,10.70
2018-09-06T04:21:31.737Z,9.07
2018-09-06T04:26:35.105Z,9.27
2018-09-06T04:31:38.545Z,8.03
2018-09-06T04:36:41.931Z,9.47
2018-09-06T04:41:45.385Z,8.30
2018-09-06T04:46:50.256Z,9.20
2018-09-06T04:51:53.653Z,8.67
2018-09-06T04:56:57.074Z,7.93
2018-09-06T05:02:00.505Z,8.38
2018-09-06T05:07:03.874Z,8.27
2018-09-06T05:12:07.220Z,7.90
2018-09-06T05:17:10.687Z,7.97
2018-09-06T05:22:14.342Z,8.23
2018-09-06T05:27:17.666Z,8.27
2018-09-06T05:32:21.236Z,9.20
2018-09-06T05:37:24.579Z,8.43
2018-09-06T05:42:28.191Z,8.50
2018-09-06T05:47:31.537Z,8.30
2018-09-06T05:52:34.865Z,10.13
2018-09-06T05:57:38.234Z,8.60
2018-09-06T06:02:41.758Z,9.60
2018-09-06T06:07:56.433Z,9.43
2018-09-06T06:12:59.768Z,9.00
2018-09-06T06:18:03.628Z,9.60
2018-09-06T06:23:07.119Z,9.17
2018-09-06T06:28:10.482Z,10.40
2018-09-06T06:33:14.909Z,9.53
2018-09-06T06:38:18.352Z,9.57
2018-09-06T06:43:21.823Z,9.87
2018-09-06T06:48:25.270Z,9.80
2018-09-06T06:53:28.908Z,9.27
2018-09-06T06:58:33.012Z,9.13
2018-09-06T07:03:36.464Z,9.67
2018-09-06T07:08:39.885Z,9.27
2018-09-06T07:13:43.286Z,9.03
2018-09-06T07:18:46.593Z,10.13
2018-09-06T07:23:50.081Z,9.10
2018-09-06T07:28:53.728Z,9.57
2018-09-06T07:33:57.256Z,9.77
2018-09-06T07:39:00.766Z,8.67
2018-09-06T07:44:04.338Z,10.70
2018-09-06T07:49:07.726Z,10.40
2018-09-06T07:54:11.443Z,10.27
2018-09-06T07:59:14.839Z,12.63
2018-09-06T08:04:18.564Z,9.37
2018-09-06T08:09:22.021Z,10.03
2018-09-06T08:14:25.637Z,8.93
2018-09-06T08:19:29.222Z,9.50
2018-09-06T08:24:32.562Z,9.97
2018-09-06T08:29:35.939Z,9.50
2018-09-06T08:34:40.041Z,8.80
2018-09-06T08:39:43.469Z,9.20
2018-09-06T08:44:46.808Z,8.93
2018-09-06T08:49:50.370Z,9.90
2018-09-06T08:54:53.836Z,9.10
2018-09-06T08:59:57.282Z,8.73
2018-09-06T09:05:00.786Z,8.57
2018-09-06T09:10:04.410Z,7.77
2018-09-06T09:15:08.085Z,8.07
2018-09-06T09:20:11.413Z,7.80
2018-09-06T09:25:14.749Z,8.87
2018-09-06T09:30:18.273Z,8.67
2018-09-06T09:35:21.640Z,8.23
2018-09-06T09:40:24.978Z,8.90
2018-09-06T09:45:28.048Z,7.90
2018-09-06T09:55:34.104Z,8.00
2018-09-06T10:00:39.652Z,8.00
2018-09-06T10:07:51.446Z,7.37
2018-09-06T10:12:54.773Z,7.40
2018-09-06T10:17:58.241Z,7.40
2018-09-06T10:23:01.804Z,7.43
2018-09-06T10:28:05.343Z,6.73
2018-09-06T10:33:08.838Z,7.03
2018-09-06T10:38:12.457Z,6.83
2018-09-06T10:43:15.931Z,7.77
2018-09-06T10:48:19.476Z,7.47
2018-09-06T10:53:22.890Z,6.27
2018-09-06T10:58:26.264Z,7.00
2018-09-06T11:03:29.669Z,6.07
2018-09-06T11:08:33.189Z,6.70
2018-09-06T11:13:36.693Z,7.27
2018-09-06T11:18:40.197Z,6.20
2018-09-06T11:23:43.569Z,7.07
2018-09-06T11:28:47.074Z,6.33
2018-09-06T11:33:50.529Z,7.17
2018-09-06T11:38:54.038Z,5.30
2018-09-06T11:43:57.565Z,6.50
2018-09-06T11:49:01.102Z,5.50
2018-09-06T11:54:04.633Z,5.20
2018-09-06T11:59:08.278Z,6.03
2018-09-06T12:04:11.902Z,6.00
2018-09-06T12:09:15.467Z,6.23
2018-09-06T12:14:18.778Z,5.90
2018-09-06T12:19:22.498Z,5.37
2018-09-06T12:24:26.005Z,5.37
2018-09-06T12:29:29.419Z,5.30
2018-09-06T12:34:32.822Z,4.93
2018-09-06T12:39:36.157Z,5.60
2018-09-06T12:44:39.542Z,5.97
2018-09-06T12:49:43.075Z,6.30
2018-09-06T12:54:46.580Z,4.97
2018-09-06T12:59:50.015Z,5.60
2018-09-06T13:04:53.612Z,4.65
2018-09-06T13:09:57.248Z,4.33
2018-09-06T13:15:00.788Z,4.53
2018-09-06T13:20:03.956Z,4.90
2018-09-06T13:25:07.536Z,4.77
2018-09-06T13:30:11.028Z,4.50
2018-09-06T13:35:14.504Z,4.62
2018-09-06T13:40:18.147Z,5.28
2018-09-06T13:45:21.900Z,4.70
2018-09-06T13:50:25.256Z,4.17
2018-09-06T13:55:28.769Z,5.45
2018-09-06T14:00:32.323Z,5.05
2018-09-06T14:05:35.793Z,4.92
2018-09-06T14:10:39.208Z,4.62
2018-09-06T14:15:43.370Z,4.42
2018-09-06T14:20:46.885Z,5.10
2018-09-06T14:25:50.429Z,4.73
2018-09-06T14:30:53.807Z,4.50
2018-09-06T14:35:57.417Z,5.53
2018-09-06T14:41:00.819Z,4.80
2018-09-06T14:46:05.128Z,5.10
2018-09-06T14:51:08.649Z,4.72
2018-09-06T14:56:12.174Z,4.87
2018-09-06T15:01:15.419Z,4.95
2018-09-06T15:06:19.020Z,5.42
2018-09-06T15:11:22.424Z,4.62
2018-09-06T15:16:25.871Z,5.35
2018-09-06T15:21:29.477Z,4.83
2018-09-06T15:26:32.938Z,4.58
2018-09-06T15:31:36.555Z,5.15
2018-09-06T15:36:39.948Z,4.55
2018-09-06T15:41:43.377Z,4.78
2018-09-06T15:46:46.812Z,5.37
2018-09-06T15:51:50.298Z,4.55
2018-09-06T15:56:53.794Z,4.95
2018-09-06T16:01:57.205Z,4.95
2018-09-06T16:07:00.769Z,4.92
2018-09-06T16:12:04.159Z,4.75
2018-09-06T16:17:08.644Z,4.85
2018-09-06T16:22:12.071Z,5.17
2018-09-06T16:27:15.464Z,5.10
2018-09-06T16:32:19.085Z,4.92
2018-09-06T16:37:22.500Z,5.12
2018-09-06T16:42:25.908Z,4.60
2018-09-06T16:47:29.506Z,4.80
2018-09-06T16:52:33.104Z,4.80
2018-09-06T16:57:36.594Z,4.57
2018-09-06T17:02:40.130Z,5.08
2018-09-06T17:07:43.841Z,4.40
2018-09-06T17:12:47.581Z,5.07
2018-09-06T17:17:50.955Z,5.07
2018-09-06T17:22:54.365Z,5.07
2018-09-06T17:27:57.970Z,4.80
2018-09-06T17:33:01.429Z,6.10
2018-09-06T17:38:04.797Z,5.30
2018-09-06T17:43:08.193Z,5.83
2018-09-06T17:48:11.810Z,5.70
2018-09-06T17:53:15.656Z,5.57
2018-09-06T17:58:19.321Z,6.53
2018-09-06T18:03:22.793Z,5.33
2018-09-06T18:08:26.362Z,5.47
2018-09-06T18:13:29.933Z,6.03
2018-09-06T18:18:33.513Z,6.50
2018-09-06T18:23:37.235Z,5.97
2018-09-06T18:28:41.104Z,6.13
2018-09-06T18:33:44.698Z,6.90
2018-09-06T18:38:49.052Z,6.27
2018-09-06T18:43:52.615Z,6.77
2018-09-06T18:48:56.168Z,6.10
2018-09-06T18:53:59.720Z,5.97
2018-09-06T18:59:03.104Z,6.17
2018-09-06T19:04:06.664Z,6.50
2018-09-06T19:09:11.519Z,7.47
2018-09-06T19:14:15.677Z,7.40
2018-09-06T19:19:19.371Z,6.57
2018-09-06T19:24:22.828Z,7.10
2018-09-06T19:29:26.708Z,6.73
2018-09-06T19:34:30.751Z,7.00
2018-09-06T19:39:34.393Z,6.50
2018-09-06T19:44:38.718Z,8.57
2018-09-06T19:49:42.830Z,7.67
2018-09-06T19:54:46.988Z,6.47
2018-09-06T19:59:50.423Z,7.07
2018-09-06T20:04:54.452Z,7.87
2018-09-06T20:09:57.791Z,7.57
2018-09-06T20:15:01.599Z,7.67
2018-09-06T20:20:05.467Z,8.40
2018-09-06T20:25:10.565Z,9.07
2018-09-06T20:30:14.406Z,7.77
2018-09-06T20:35:17.789Z,8.03
2018-09-06T20:40:21.383Z,7.97
2018-09-06T20:45:25.100Z,8.80
2018-09-06T20:50:29.461Z,7.93
2018-09-06T20:55:33.188Z,8.10
2018-09-06T21:00:36.714Z,8.00
2018-09-06T21:05:40.554Z,7.73
2018-09-06T21:10:44.923Z,8.60
2018-09-06T21:15:48.361Z,7.47
2018-09-06T21:20:51.825Z,8.48
2018-09-06T21:25:55.514Z,9.00
2018-09-06T21:30:58.956Z,7.57
2018-09-06T21:36:02.303Z,7.20
2018-09-06T21:41:05.729Z,7.30
2018-09-06T21:46:09.120Z,8.30
2018-09-06T21:51:12.535Z,8.90
2018-09-06T21:56:15.858Z,8.30
2018-09-06T22:01:19.332Z,8.20
2018-09-06T22:06:22.696Z,8.10
2018-09-06T22:11:26.205Z,8.13
2018-09-06T22:16:29.636Z,8.70
2018-09-06T22:21:33.201Z,7.93
2018-09-06T22:26:36.664Z,9.27
2018-09-06T22:31:40.149Z,7.93
2018-09-06T22:36:43.587Z,7.63
2018-09-06T22:41:46.964Z,8.67
2018-09-06T22:46:50.412Z,7.73
2018-09-06T22:51:53.908Z,7.63
2018-09-06T22:56:57.405Z,8.43
2018-09-06T23:02:00.784Z,8.03
2018-09-06T23:07:04.256Z,9.03
2018-09-06T23:12:07.708Z,9.10
2018-09-06T23:17:11.072Z,7.90
2018-09-06T23:22:15.090Z,8.17
2018-09-06T23:27:18.708Z,8.23
2018-09-06T23:32:22.305Z,7.97
2018-09-06T23:37:25.820Z,8.47
2018-09-06T23:42:29.248Z,8.00
2018-09-06T23:47:32.810Z,7.83
2018-09-06T23:52:36.451Z,8.33
2018-09-06T23:57:40.043Z,8.17
